sensor_id;sensor_type;location;lat;lon;timestamp;pressure;altitude;pressure_sealevel;temperature;humidity
40918;BME280;26644;50.248;19.032;2023-05-18T00:02:29;98694.22;;;9.42;79.17
40918;BME280;26644;50.248;19.032;2023-05-18T00:05:35;98702.44;;;9.42;78.86
40918;BME280;26644;50.248;19.032;2023-05-18T00:08:42;98710.88;;;9.35;78.23
40918;BME280;26644;50.248;19.032;2023-05-18T00:11:47;98702.09;;;9.28;78.55
40918;BME280;26644;50.248;19.032;2023-05-18T00:14:51;98699.84;;;9.25;78.69
40918;BME280;26644;50.248;19.032;2023-05-18T00:17:56;98717.44;;;9.29;78.28
40918;BME280;26644;50.248;19.032;2023-05-18T00:21:01;98709.22;;;9.29;78.50
40918;BME280;26644;50.248;19.032;2023-05-18T00:24:10;98714.94;;;9.27;78.12
40918;BME280;26644;50.248;19.032;2023-05-18T00:27:14;98712.75;;;9.24;78.23
40918;BME280;26644;50.248;19.032;2023-05-18T00:30:19;98707.25;;;9.24;78.82
40918;BME280;26644;50.248;19.032;2023-05-18T00:33:25;98715.75;;;9.23;78.10
40918;BME280;26644;50.248;19.032;2023-05-18T00:36:32;98714.06;;;9.17;78.20
40918;BME280;26644;50.248;19.032;2023-05-18T00:39:39;98712.66;;;9.14;78.18
40918;BME280;26644;50.248;19.032;2023-05-18T00:42:44;98722.53;;;9.15;77.60
40918;BME280;26644;50.248;19.032;2023-05-18T00:45:49;98718.16;;;9.14;77.60
40918;BME280;26644;50.248;19.032;2023-05-18T00:48:55;98704.69;;;9.07;77.48
40918;BME280;26644;50.248;19.032;2023-05-18T00:52:02;98718.63;;;9.06;77.54
40918;BME280;26644;50.248;19.032;2023-05-18T00:55:12;98730.69;;;9.05;77.02
40918;BME280;26644;50.248;19.032;2023-05-18T00:58:17;98736.16;;;9.05;77.33
40918;BME280;26644;50.248;19.032;2023-05-18T01:01:26;98734.53;;;9.09;77.71
40918;BME280;26644;50.248;19.032;2023-05-18T01:04:34;98726.03;;;9.05;77.12
40918;BME280;26644;50.248;19.032;2023-05-18T01:07:42;98735.06;;;9.06;77.40
40918;BME280;26644;50.248;19.032;2023-05-18T01:10:54;98730.94;;;9.03;76.87
40918;BME280;26644;50.248;19.032;2023-05-18T01:14:12;98739.38;;;8.97;76.77
40918;BME280;26644;50.248;19.032;2023-05-18T01:17:28;98737.75;;;9.01;76.54
40918;BME280;26644;50.248;19.032;2023-05-18T01:20:46;98743.56;;;9.04;76.91
40918;BME280;26644;50.248;19.032;2023-05-18T01:24:03;98748.50;;;9.07;76.90
40918;BME280;26644;50.248;19.032;2023-05-18T01:27:31;98738.31;;;8.98;76.26
40918;BME280;26644;50.248;19.032;2023-05-18T01:30:40;98745.47;;;9.04;76.93
40918;BME280;26644;50.248;19.032;2023-05-18T01:33:46;98749.03;;;9.04;76.24
40918;BME280;26644;50.248;19.032;2023-05-18T01:36:50;98752.59;;;9.05;75.76
40918;BME280;26644;50.248;19.032;2023-05-18T01:39:56;98755.63;;;9.08;75.92
40918;BME280;26644;50.248;19.032;2023-05-18T01:43:10;98758.63;;;9.07;75.62
40918;BME280;26644;50.248;19.032;2023-05-18T01:46:31;98747.91;;;9.00;75.41
40918;BME280;26644;50.248;19.032;2023-05-18T01:49:47;98749.53;;;8.96;75.18
40918;BME280;26644;50.248;19.032;2023-05-18T01:53:07;98756.94;;;9.01;75.39
40918;BME280;26644;50.248;19.032;2023-05-18T01:56:19;98765.72;;;9.03;75.29
40918;BME280;26644;50.248;19.032;2023-05-18T01:59:27;98762.94;;;8.98;75.01
40918;BME280;26644;50.248;19.032;2023-05-18T02:02:33;98761.88;;;8.99;75.05
40918;BME280;26644;50.248;19.032;2023-05-18T02:05:37;98770.91;;;8.99;74.75
40918;BME280;26644;50.248;19.032;2023-05-18T02:08:43;98775.56;;;8.99;74.93
40918;BME280;26644;50.248;19.032;2023-05-18T02:11:48;98769.81;;;9.00;75.20
40918;BME280;26644;50.248;19.032;2023-05-18T02:14:56;98774.22;;;9.01;74.98
40918;BME280;26644;50.248;19.032;2023-05-18T02:18:05;98770.63;;;9.01;75.02
40918;BME280;26644;50.248;19.032;2023-05-18T02:21:10;98771.66;;;8.94;74.61
40918;BME280;26644;50.248;19.032;2023-05-18T02:24:15;98778.03;;;9.00;74.72
40918;BME280;26644;50.248;19.032;2023-05-18T02:27:35;98788.47;;;9.03;75.08
40918;BME280;26644;50.248;19.032;2023-05-18T02:31:06;98776.06;;;8.95;74.73
40918;BME280;26644;50.248;19.032;2023-05-18T02:34:27;98775.56;;;8.99;75.36
40918;BME280;26644;50.248;19.032;2023-05-18T02:37:47;98776.97;;;9.01;75.36
40918;BME280;26644;50.248;19.032;2023-05-18T02:41:09;98779.69;;;9.01;75.24
40918;BME280;26644;50.248;19.032;2023-05-18T02:44:29;98780.78;;;9.00;75.53
40918;BME280;26644;50.248;19.032;2023-05-18T02:47:36;98787.00;;;8.95;75.55
40918;BME280;26644;50.248;19.032;2023-05-18T02:50:47;98791.34;;;8.91;75.30
40918;BME280;26644;50.248;19.032;2023-05-18T02:53:54;98788.03;;;8.89;75.76
40918;BME280;26644;50.248;19.032;2023-05-18T02:56:58;98781.94;;;8.82;75.95
40918;BME280;26644;50.248;19.032;2023-05-18T03:00:18;98783.34;;;8.85;75.96
40918;BME280;26644;50.248;19.032;2023-05-18T03:03:26;98785.72;;;8.76;76.28
40918;BME280;26644;50.248;19.032;2023-05-18T03:06:46;98791.41;;;8.69;76.38
40918;BME280;26644;50.248;19.032;2023-05-18T03:10:08;98805.88;;;8.65;76.93
40918;BME280;26644;50.248;19.032;2023-05-18T03:13:28;98795.94;;;8.58;77.61
40918;BME280;26644;50.248;19.032;2023-05-18T03:16:49;98792.59;;;8.51;77.28
40918;BME280;26644;50.248;19.032;2023-05-18T03:20:16;98805.25;;;8.57;77.91
40918;BME280;26644;50.248;19.032;2023-05-18T03:23:36;98804.13;;;8.58;78.32
40918;BME280;26644;50.248;19.032;2023-05-18T03:26:42;98809.63;;;8.58;78.26
40918;BME280;26644;50.248;19.032;2023-05-18T03:29:47;98808.22;;;8.56;78.47
40918;BME280;26644;50.248;19.032;2023-05-18T03:32:54;98787.31;;;8.44;77.95
40918;BME280;26644;50.248;19.032;2023-05-18T03:36:03;98817.28;;;8.56;77.87
40918;BME280;26644;50.248;19.032;2023-05-18T03:39:09;98824.16;;;8.59;78.20
40918;BME280;26644;50.248;19.032;2023-05-18T03:42:29;98813.13;;;8.54;78.10
40918;BME280;26644;50.248;19.032;2023-05-18T03:45:49;98815.03;;;8.53;78.34
40918;BME280;26644;50.248;19.032;2023-05-18T03:49:09;98827.16;;;8.57;77.91
40918;BME280;26644;50.248;19.032;2023-05-18T03:52:34;98820.81;;;8.57;78.64
40918;BME280;26644;50.248;19.032;2023-05-18T03:55:56;98838.66;;;8.59;77.84
40918;BME280;26644;50.248;19.032;2023-05-18T03:59:16;98829.63;;;8.59;78.00
40918;BME280;26644;50.248;19.032;2023-05-18T04:02:35;98843.91;;;8.66;77.74
40918;BME280;26644;50.248;19.032;2023-05-18T04:05:55;98836.56;;;8.67;77.79
40918;BME280;26644;50.248;19.032;2023-05-18T04:09:18;98833.69;;;8.56;77.34
40918;BME280;26644;50.248;19.032;2023-05-18T04:12:39;98851.06;;;8.67;77.96
40918;BME280;26644;50.248;19.032;2023-05-18T04:15:59;98854.59;;;8.68;77.69
40918;BME280;26644;50.248;19.032;2023-05-18T04:19:19;98850.03;;;8.73;77.66
40918;BME280;26644;50.248;19.032;2023-05-18T04:22:41;98848.59;;;8.66;77.41
40918;BME280;26644;50.248;19.032;2023-05-18T04:25:50;98856.84;;;8.71;77.56
40918;BME280;26644;50.248;19.032;2023-05-18T04:28:54;98851.63;;;8.69;77.10
40918;BME280;26644;50.248;19.032;2023-05-18T04:32:01;98862.00;;;8.67;77.08
40918;BME280;26644;50.248;19.032;2023-05-18T04:35:09;98861.75;;;8.69;77.16
40918;BME280;26644;50.248;19.032;2023-05-18T04:38:15;98871.03;;;8.68;77.30
40918;BME280;26644;50.248;19.032;2023-05-18T04:41:25;98875.22;;;8.75;77.53
40918;BME280;26644;50.248;19.032;2023-05-18T04:44:32;98876.91;;;8.76;76.95
40918;BME280;26644;50.248;19.032;2023-05-18T04:47:39;98861.81;;;8.74;76.79
40918;BME280;26644;50.248;19.032;2023-05-18T04:50:47;98864.88;;;8.77;76.33
40918;BME280;26644;50.248;19.032;2023-05-18T04:53:54;98866.25;;;8.80;76.56
40918;BME280;26644;50.248;19.032;2023-05-18T04:57:02;98872.34;;;8.87;76.69
40918;BME280;26644;50.248;19.032;2023-05-18T05:00:08;98872.34;;;8.87;76.04
40918;BME280;26644;50.248;19.032;2023-05-18T05:03:14;98857.00;;;8.86;76.19
40918;BME280;26644;50.248;19.032;2023-05-18T05:06:18;98874.53;;;8.85;75.68
40918;BME280;26644;50.248;19.032;2023-05-18T05:09:24;98871.53;;;8.87;75.89
40918;BME280;26644;50.248;19.032;2023-05-18T05:12:31;98880.34;;;8.94;75.95
40918;BME280;26644;50.248;19.032;2023-05-18T05:15:36;98874.06;;;8.93;75.57
40918;BME280;26644;50.248;19.032;2023-05-18T05:18:40;98888.50;;;9.11;75.65
40918;BME280;26644;50.248;19.032;2023-05-18T05:21:46;98884.22;;;9.20;75.16
40918;BME280;26644;50.248;19.032;2023-05-18T05:24:51;98878.84;;;9.31;75.02
40918;BME280;26644;50.248;19.032;2023-05-18T05:27:59;98881.16;;;9.44;74.69
40918;BME280;26644;50.248;19.032;2023-05-18T05:31:03;98885.56;;;9.45;73.88
40918;BME280;26644;50.248;19.032;2023-05-18T05:34:10;98900.34;;;9.44;73.05
40918;BME280;26644;50.248;19.032;2023-05-18T05:37:15;98894.19;;;9.32;72.35
40918;BME280;26644;50.248;19.032;2023-05-18T05:40:21;98891.19;;;9.33;73.63
40918;BME280;26644;50.248;19.032;2023-05-18T05:43:30;98895.53;;;9.29;71.18
40918;BME280;26644;50.248;19.032;2023-05-18T05:46:36;98899.38;;;9.28;71.86
40918;BME280;26644;50.248;19.032;2023-05-18T05:49:42;98899.00;;;9.19;71.60
40918;BME280;26644;50.248;19.032;2023-05-18T05:53:02;98905.66;;;9.28;72.30
40918;BME280;26644;50.248;19.032;2023-05-18T05:56:10;98904.06;;;9.33;71.96
40918;BME280;26644;50.248;19.032;2023-05-18T05:59:18;98905.44;;;9.35;72.38
40918;BME280;26644;50.248;19.032;2023-05-18T06:02:23;98912.63;;;9.41;71.62
40918;BME280;26644;50.248;19.032;2023-05-18T06:05:29;98913.50;;;9.47;71.84
40918;BME280;26644;50.248;19.032;2023-05-18T06:08:34;98924.78;;;9.51;70.77
40918;BME280;26644;50.248;19.032;2023-05-18T06:11:39;98922.03;;;9.51;70.36
40918;BME280;26644;50.248;19.032;2023-05-18T06:14:47;98920.91;;;9.47;69.76
40918;BME280;26644;50.248;19.032;2023-05-18T06:17:53;98917.53;;;9.39;69.04
40918;BME280;26644;50.248;19.032;2023-05-18T06:20:58;98923.06;;;9.44;69.31
40918;BME280;26644;50.248;19.032;2023-05-18T06:24:05;98917.53;;;9.39;69.47
40918;BME280;26644;50.248;19.032;2023-05-18T06:27:18;98935.44;;;9.47;69.17
40918;BME280;26644;50.248;19.032;2023-05-18T06:31:00;98935.13;;;9.43;68.81
40918;BME280;26644;50.248;19.032;2023-05-18T06:34:25;98938.69;;;9.44;68.54
40918;BME280;26644;50.248;19.032;2023-05-18T06:37:29;98931.03;;;9.46;68.63
40918;BME280;26644;50.248;19.032;2023-05-18T06:40:35;98935.22;;;9.54;68.53
40918;BME280;26644;50.248;19.032;2023-05-18T06:43:39;98940.75;;;9.59;68.64
40918;BME280;26644;50.248;19.032;2023-05-18T06:47:00;98944.44;;;9.75;68.54
40918;BME280;26644;50.248;19.032;2023-05-18T06:50:05;98941.84;;;9.90;68.32
40918;BME280;26644;50.248;19.032;2023-05-18T06:53:11;98936.97;;;10.03;66.88
40918;BME280;26644;50.248;19.032;2023-05-18T06:56:30;98941.91;;;10.01;66.10
40918;BME280;26644;50.248;19.032;2023-05-18T06:59:50;98947.97;;;10.03;65.62
40918;BME280;26644;50.248;19.032;2023-05-18T07:02:58;98942.50;;;10.08;65.94
40918;BME280;26644;50.248;19.032;2023-05-18T07:06:04;98953.91;;;10.32;65.78
40918;BME280;26644;50.248;19.032;2023-05-18T07:09:10;98940.75;;;10.34;64.47
40918;BME280;26644;50.248;19.032;2023-05-18T07:12:15;98957.28;;;10.44;63.77
40918;BME280;26644;50.248;19.032;2023-05-18T07:15:20;98954.59;;;10.50;63.47
40918;BME280;26644;50.248;19.032;2023-05-18T07:18:28;98957.56;;;10.48;63.02
40918;BME280;26644;50.248;19.032;2023-05-18T07:21:34;98959.63;;;10.63;62.40
40918;BME280;26644;50.248;19.032;2023-05-18T07:24:39;98969.56;;;10.80;61.71
40918;BME280;26644;50.248;19.032;2023-05-18T07:27:44;98976.75;;;10.86;59.39
40918;BME280;26644;50.248;19.032;2023-05-18T07:30:48;98973.19;;;10.90;59.79
40918;BME280;26644;50.248;19.032;2023-05-18T07:33:56;98964.19;;;11.00;59.04
40918;BME280;26644;50.248;19.032;2023-05-18T07:37:00;98976.06;;;11.21;59.88
40918;BME280;26644;50.248;19.032;2023-05-18T07:40:10;98981.28;;;11.23;57.86
40918;BME280;26644;50.248;19.032;2023-05-18T07:43:15;98987.06;;;11.32;59.06
40918;BME280;26644;50.248;19.032;2023-05-18T07:46:20;98991.78;;;11.47;58.73
40918;BME280;26644;50.248;19.032;2023-05-18T07:49:27;98975.81;;;11.43;57.71
40918;BME280;26644;50.248;19.032;2023-05-18T07:52:32;98975.81;;;11.43;58.31
40918;BME280;26644;50.248;19.032;2023-05-18T07:55:37;98998.69;;;11.49;56.61
40918;BME280;26644;50.248;19.032;2023-05-18T07:58:43;98964.78;;;11.23;57.45
40918;BME280;26644;50.248;19.032;2023-05-18T08:01:47;98994.81;;;11.40;57.88
40918;BME280;26644;50.248;19.032;2023-05-18T08:04:55;98993.94;;;11.29;56.05
40918;BME280;26644;50.248;19.032;2023-05-18T08:08:00;98992.50;;;11.11;56.35
40918;BME280;26644;50.248;19.032;2023-05-18T08:11:06;98990.84;;;11.05;57.00
40918;BME280;26644;50.248;19.032;2023-05-18T08:14:10;98985.81;;;10.86;57.47
40918;BME280;26644;50.248;19.032;2023-05-18T08:17:15;98992.63;;;10.78;57.71
40918;BME280;26644;50.248;19.032;2023-05-18T08:20:22;98988.22;;;10.72;58.17
40918;BME280;26644;50.248;19.032;2023-05-18T08:23:30;99002.72;;;10.63;57.45
40918;BME280;26644;50.248;19.032;2023-05-18T08:26:35;98993.06;;;10.55;57.44
40918;BME280;26644;50.248;19.032;2023-05-18T08:29:40;99001.31;;;10.60;57.31
40918;BME280;26644;50.248;19.032;2023-05-18T08:32:45;99010.03;;;10.52;57.61
40918;BME280;26644;50.248;19.032;2023-05-18T08:35:52;98998.88;;;10.64;58.36
40918;BME280;26644;50.248;19.032;2023-05-18T08:38:57;98988.16;;;10.62;57.54
40918;BME280;26644;50.248;19.032;2023-05-18T08:42:09;98987.97;;;10.74;57.40
40918;BME280;26644;50.248;19.032;2023-05-18T08:45:28;98995.41;;;10.84;57.27
40918;BME280;26644;50.248;19.032;2023-05-18T08:48:43;98989.91;;;10.84;56.75
40918;BME280;26644;50.248;19.032;2023-05-18T08:51:54;98991.00;;;10.77;55.85
40918;BME280;26644;50.248;19.032;2023-05-18T08:55:05;99003.13;;;10.87;56.43
40918;BME280;26644;50.248;19.032;2023-05-18T08:58:14;99006.66;;;10.82;56.06
40918;BME280;26644;50.248;19.032;2023-05-18T09:01:24;98997.84;;;10.75;56.64
40918;BME280;26644;50.248;19.032;2023-05-18T09:04:31;99006.09;;;10.75;56.47
40918;BME280;26644;50.248;19.032;2023-05-18T09:07:41;99002.78;;;10.73;57.09
40918;BME280;26644;50.248;19.032;2023-05-18T09:10:47;99007.72;;;10.76;56.66
40918;BME280;26644;50.248;19.032;2023-05-18T09:13:54;99002.25;;;10.81;57.19
40918;BME280;26644;50.248;19.032;2023-05-18T09:16:59;99006.16;;;10.90;57.28
40918;BME280;26644;50.248;19.032;2023-05-18T09:20:06;98998.25;;;11.04;56.68
40918;BME280;26644;50.248;19.032;2023-05-18T09:23:15;98993.91;;;11.19;56.31
40918;BME280;26644;50.248;19.032;2023-05-18T09:26:21;99011.31;;;11.40;56.15
40918;BME280;26644;50.248;19.032;2023-05-18T09:29:26;99010.75;;;11.48;56.01
40918;BME280;26644;50.248;19.032;2023-05-18T09:32:33;99019.31;;;11.62;55.84
40918;BME280;26644;50.248;19.032;2023-05-18T09:35:54;99018.25;;;11.78;55.52
40918;BME280;26644;50.248;19.032;2023-05-18T09:39:16;99022.91;;;11.78;54.08
40918;BME280;26644;50.248;19.032;2023-05-18T09:46:13;99013.84;;;11.72;54.86
40918;BME280;26644;50.248;19.032;2023-05-18T09:49:21;99013.56;;;11.79;54.45
40918;BME280;26644;50.248;19.032;2023-05-18T09:52:25;99006.97;;;11.85;53.46
40918;BME280;26644;50.248;19.032;2023-05-18T09:55:35;99018.78;;;11.81;53.07
40918;BME280;26644;50.248;19.032;2023-05-18T09:58:42;99016.31;;;11.74;52.80
40918;BME280;26644;50.248;19.032;2023-05-18T10:01:58;99016.84;;;11.71;52.64
40918;BME280;26644;50.248;19.032;2023-05-18T10:05:08;99013.28;;;11.75;52.91
40918;BME280;26644;50.248;19.032;2023-05-18T10:08:23;99010.25;;;11.67;52.97
40918;BME280;26644;50.248;19.032;2023-05-18T10:11:34;99017.91;;;11.59;53.44
40918;BME280;26644;50.248;19.032;2023-05-18T10:14:40;99013.00;;;11.67;53.55
40918;BME280;26644;50.248;19.032;2023-05-18T10:17:45;99016.88;;;11.76;54.08
40918;BME280;26644;50.248;19.032;2023-05-18T10:20:53;99013.00;;;11.82;53.75
40918;BME280;26644;50.248;19.032;2023-05-18T10:24:03;99006.16;;;11.80;54.25
40918;BME280;26644;50.248;19.032;2023-05-18T10:27:17;99011.66;;;11.80;54.31
40918;BME280;26644;50.248;19.032;2023-05-18T10:30:27;99016.88;;;11.76;53.78
40918;BME280;26644;50.248;19.032;2023-05-18T10:33:49;99014.13;;;11.76;54.10
40918;BME280;26644;50.248;19.032;2023-05-18T10:37:13;99004.78;;;11.77;54.23
40918;BME280;26644;50.248;19.032;2023-05-18T10:40:35;99011.66;;;11.80;54.65
40918;BME280;26644;50.248;19.032;2023-05-18T10:44:01;99001.50;;;11.95;55.46
40918;BME280;26644;50.248;19.032;2023-05-18T10:47:23;99000.97;;;12.09;54.63
40918;BME280;26644;50.248;19.032;2023-05-18T10:50:43;98995.19;;;12.10;54.55
40918;BME280;26644;50.248;19.032;2023-05-18T10:54:11;99003.72;;;12.14;54.94
40918;BME280;26644;50.248;19.032;2023-05-18T10:57:19;98999.59;;;12.06;52.98
40918;BME280;26644;50.248;19.032;2023-05-18T11:00:29;99001.50;;;12.01;52.26
40918;BME280;26644;50.248;19.032;2023-05-18T11:03:39;99009.75;;;11.95;52.87
40918;BME280;26644;50.248;19.032;2023-05-18T11:06:53;99002.00;;;11.82;52.88
40918;BME280;26644;50.248;19.032;2023-05-18T11:10:07;99009.16;;;11.83;53.66
40918;BME280;26644;50.248;19.032;2023-05-18T11:13:14;99018.53;;;11.77;54.06
40918;BME280;26644;50.248;19.032;2023-05-18T11:16:32;98998.69;;;11.70;54.32
40918;BME280;26644;50.248;19.032;2023-05-18T11:19:37;99009.72;;;11.80;54.59
40918;BME280;26644;50.248;19.032;2023-05-18T11:22:49;99000.63;;;11.64;54.63
40918;BME280;26644;50.248;19.032;2023-05-18T11:25:54;99001.69;;;11.58;55.28
40918;BME280;26644;50.248;19.032;2023-05-18T11:29:15;99009.69;;;11.65;56.69
40918;BME280;26644;50.248;19.032;2023-05-18T11:32:24;99015.75;;;11.61;56.43
40918;BME280;26644;50.248;19.032;2023-05-18T11:35:53;99011.59;;;11.59;56.81
40918;BME280;26644;50.248;19.032;2023-05-18T11:39:22;99018.19;;;11.58;56.61
40918;BME280;26644;50.248;19.032;2023-05-18T11:42:42;99011.88;;;11.57;56.75
40918;BME280;26644;50.248;19.032;2023-05-18T11:46:02;99016.03;;;11.70;56.29
40918;BME280;26644;50.248;19.032;2023-05-18T11:49:27;99023.44;;;11.59;54.96
40918;BME280;26644;50.248;19.032;2023-05-18T11:52:51;99027.00;;;11.55;55.44
40918;BME280;26644;50.248;19.032;2023-05-18T11:55:58;99024.00;;;11.61;55.75
40918;BME280;26644;50.248;19.032;2023-05-18T11:59:13;99030.91;;;11.74;56.32
40918;BME280;26644;50.248;19.032;2023-05-18T12:02:20;99025.13;;;11.71;55.96
40918;BME280;26644;50.248;19.032;2023-05-18T12:05:32;99032.00;;;11.78;56.58
40918;BME280;26644;50.248;19.032;2023-05-18T12:08:39;99034.22;;;11.87;56.85
40918;BME280;26644;50.248;19.032;2023-05-18T12:11:44;99039.47;;;11.99;57.32
40918;BME280;26644;50.248;19.032;2023-05-18T12:14:53;99029.03;;;12.11;58.77
40918;BME280;26644;50.248;19.032;2023-05-18T12:17:59;99023.50;;;12.06;57.14
40918;BME280;26644;50.248;19.032;2023-05-18T12:21:07;99030.38;;;12.03;58.35
40918;BME280;26644;50.248;19.032;2023-05-18T12:24:11;99034.78;;;11.99;58.21
40918;BME280;26644;50.248;19.032;2023-05-18T12:27:19;99034.50;;;11.85;58.02
40918;BME280;26644;50.248;19.032;2023-05-18T12:30:27;99038.59;;;11.77;58.34
40918;BME280;26644;50.248;19.032;2023-05-18T12:33:49;99037.22;;;11.75;59.23
40918;BME280;26644;50.248;19.032;2023-05-18T12:36:57;99033.66;;;11.74;59.76
40918;BME280;26644;50.248;19.032;2023-05-18T12:40:02;99037.50;;;11.73;60.12
40918;BME280;26644;50.248;19.032;2023-05-18T12:43:08;99036.13;;;11.71;59.96
40918;BME280;26644;50.248;19.032;2023-05-18T12:46:13;99028.13;;;11.64;61.47
40918;BME280;26644;50.248;19.032;2023-05-18T12:49:18;99032.78;;;11.53;60.92
40918;BME280;26644;50.248;19.032;2023-05-18T12:52:25;99031.94;;;11.53;62.04
40918;BME280;26644;50.248;19.032;2023-05-18T12:55:30;99033.59;;;11.54;62.25
40918;BME280;26644;50.248;19.032;2023-05-18T12:58:35;99033.88;;;11.52;62.99
40918;BME280;26644;50.248;19.032;2023-05-18T13:01:41;99034.69;;;11.58;64.17
40918;BME280;26644;50.248;19.032;2023-05-18T13:05:00;99031.44;;;11.61;63.05
40918;BME280;26644;50.248;19.032;2023-05-18T13:08:16;99028.13;;;11.64;63.39
40918;BME280;26644;50.248;19.032;2023-05-18T13:11:24;99031.41;;;11.66;63.73
40918;BME280;26644;50.248;19.032;2023-05-18T13:14:36;99043.03;;;11.84;64.48
40918;BME280;26644;50.248;19.032;2023-05-18T13:17:53;99040.00;;;11.95;64.89
40918;BME280;26644;50.248;19.032;2023-05-18T13:21:00;99038.34;;;11.89;63.79
40918;BME280;26644;50.248;19.032;2023-05-18T13:24:07;99034.75;;;11.78;63.96
40918;BME280;26644;50.248;19.032;2023-05-18T13:27:28;99031.16;;;11.63;63.13
40918;BME280;26644;50.248;19.032;2023-05-18T13:30:49;99031.91;;;11.48;64.09
40918;BME280;26644;50.248;19.032;2023-05-18T13:34:08;99032.16;;;11.36;64.94
40918;BME280;26644;50.248;19.032;2023-05-18T13:37:28;99034.91;;;11.31;66.44
40918;BME280;26644;50.248;19.032;2023-05-18T13:40:50;99037.38;;;11.27;65.72
40918;BME280;26644;50.248;19.032;2023-05-18T13:44:09;99032.63;;;11.17;64.90
40918;BME280;26644;50.248;19.032;2023-05-18T13:47:31;99030.16;;;11.10;65.62
40918;BME280;26644;50.248;19.032;2023-05-18T13:50:50;99024.91;;;11.04;66.15
40918;BME280;26644;50.248;19.032;2023-05-18T13:54:10;99025.13;;;10.97;67.40
40918;BME280;26644;50.248;19.032;2023-05-18T13:57:32;99025.97;;;10.92;68.07
40918;BME280;26644;50.248;19.032;2023-05-18T14:00:51;99025.38;;;10.90;68.31
40918;BME280;26644;50.248;19.032;2023-05-18T14:03:57;99022.09;;;10.88;68.92
40918;BME280;26644;50.248;19.032;2023-05-18T14:07:01;99029.22;;;10.84;68.62
40918;BME280;26644;50.248;19.032;2023-05-18T14:10:09;99028.91;;;10.81;69.15
40918;BME280;26644;50.248;19.032;2023-05-18T14:13:17;99016.78;;;10.71;68.11
40918;BME280;26644;50.248;19.032;2023-05-18T14:16:22;99020.09;;;10.78;69.15
40918;BME280;26644;50.248;19.032;2023-05-18T14:19:26;99024.44;;;10.69;67.71
40918;BME280;26644;50.248;19.032;2023-05-18T14:22:32;99017.06;;;10.70;69.21
40918;BME280;26644;50.248;19.032;2023-05-18T14:25:40;99016.28;;;10.80;70.42
40918;BME280;26644;50.248;19.032;2023-05-18T14:28:49;99015.72;;;10.83;69.02
40918;BME280;26644;50.248;19.032;2023-05-18T14:31:53;99011.66;;;10.90;68.59
40918;BME280;26644;50.248;19.032;2023-05-18T14:34:59;99010.84;;;10.90;68.73
40918;BME280;26644;50.248;19.032;2023-05-18T14:38:03;99017.97;;;10.86;68.91
40918;BME280;26644;50.248;19.032;2023-05-18T14:41:08;99016.81;;;10.76;67.74
40918;BME280;26644;50.248;19.032;2023-05-18T14:44:15;99004.66;;;10.62;67.14
40918;BME280;26644;50.248;19.032;2023-05-18T14:47:21;99016.97;;;10.59;68.76
40918;BME280;26644;50.248;19.032;2023-05-18T14:50:40;99016.56;;;10.45;65.80
40918;BME280;26644;50.248;19.032;2023-05-18T14:54:00;99018.44;;;10.35;64.20
40918;BME280;26644;50.248;19.032;2023-05-18T14:57:19;99026.38;;;10.31;63.35
40918;BME280;26644;50.248;19.032;2023-05-18T15:00:41;99028.31;;;10.36;62.98
40918;BME280;26644;50.248;19.032;2023-05-18T15:04:01;99027.00;;;10.43;62.88
40918;BME280;26644;50.248;19.032;2023-05-18T15:07:21;99030.06;;;10.52;63.73
40918;BME280;26644;50.248;19.032;2023-05-18T15:10:55;99035.13;;;10.60;64.52
40918;BME280;26644;50.248;19.032;2023-05-18T15:14:01;99035.69;;;10.68;62.54
40918;BME280;26644;50.248;19.032;2023-05-18T15:17:08;99034.47;;;10.53;58.38
40918;BME280;26644;50.248;19.032;2023-05-18T15:20:15;99033.00;;;10.35;56.36
40918;BME280;26644;50.248;19.032;2023-05-18T15:23:20;99035.69;;;10.30;56.10
40918;BME280;26644;50.248;19.032;2023-05-18T15:26:27;99037.59;;;10.24;56.47
40918;BME280;26644;50.248;19.032;2023-05-18T15:29:46;99034.25;;;10.22;57.46
40918;BME280;26644;50.248;19.032;2023-05-18T15:33:08;99040.53;;;10.18;56.74
40918;BME280;26644;50.248;19.032;2023-05-18T15:36:28;99038.91;;;10.17;56.72
40918;BME280;26644;50.248;19.032;2023-05-18T15:39:48;99042.72;;;10.16;56.90
40918;BME280;26644;50.248;19.032;2023-05-18T15:43:08;99045.56;;;10.26;57.32
40918;BME280;26644;50.248;19.032;2023-05-18T15:46:13;99027.44;;;10.25;57.85
40918;BME280;26644;50.248;19.032;2023-05-18T15:49:20;99045.03;;;10.29;58.41
40918;BME280;26644;50.248;19.032;2023-05-18T15:52:26;99047.16;;;10.22;60.06
40918;BME280;26644;50.248;19.032;2023-05-18T15:55:31;99040.63;;;10.28;60.79
40918;BME280;26644;50.248;19.032;2023-05-18T15:58:36;99043.13;;;10.35;60.57
40918;BME280;26644;50.248;19.032;2023-05-18T16:01:41;99040.06;;;10.26;60.65
40918;BME280;26644;50.248;19.032;2023-05-18T16:04:48;99037.59;;;10.29;61.97
40918;BME280;26644;50.248;19.032;2023-05-18T16:07:53;99045.78;;;10.19;62.17
40918;BME280;26644;50.248;19.032;2023-05-18T16:10:58;99042.13;;;10.14;62.94
40918;BME280;26644;50.248;19.032;2023-05-18T16:14:03;99048.13;;;10.05;63.43
40918;BME280;26644;50.248;19.032;2023-05-18T16:17:22;99057.38;;;9.99;64.13
40918;BME280;26644;50.248;19.032;2023-05-18T16:20:44;99049.34;;;9.92;65.01
40918;BME280;26644;50.248;19.032;2023-05-18T16:24:05;99044.09;;;9.86;64.23
40918;BME280;26644;50.248;19.032;2023-05-18T16:27:24;99059.47;;;9.87;63.53
40918;BME280;26644;50.248;19.032;2023-05-18T16:30:44;99056.16;;;9.85;62.37
40918;BME280;26644;50.248;19.032;2023-05-18T16:33:49;99053.44;;;9.85;62.98
40918;BME280;26644;50.248;19.032;2023-05-18T16:36:56;99060.81;;;9.84;63.11
40918;BME280;26644;50.248;19.032;2023-05-18T16:40:01;99060.81;;;9.84;63.51
40918;BME280;26644;50.248;19.032;2023-05-18T16:43:06;99054.50;;;9.84;64.00
40918;BME280;26644;50.248;19.032;2023-05-18T16:46:11;99054.50;;;9.84;65.07
40918;BME280;26644;50.248;19.032;2023-05-18T16:49:17;99060.81;;;9.84;66.84